TimeCST,TemperatureF,Dew PointF,Humidity,Sea Level PressureIn,VisibilityMPH,Wind Direction,Wind SpeedMPH,Gust SpeedMPH,PrecipitationIn,Events,Conditions,WindDirDegrees,DateUTC
12:52 AM,32.0,28.0,85,30.26,10.0,WNW,6.9,-,N/A,,Clear,300,2013-11-08 06:52:00
1:52 AM,30.0,27.0,88,30.27,10.0,West,4.6,-,N/A,,Clear,280,2013-11-08 07:52:00
2:52 AM,28.9,27.0,92,30.28,10.0,WNW,3.5,-,N/A,,Clear,290,2013-11-08 08:52:00
3:52 AM,28.0,25.0,88,30.29,9.0,Calm,Calm,-,N/A,,Clear,0,2013-11-08 09:52:00
4:52 AM,26.1,23.0,88,30.30,7.0,Calm,Calm,-,N/A,,Clear,0,2013-11-08 10:52:00
5:25 AM,26.6,24.8,93,30.28,1.8,Calm,Calm,-,N/A,,Clear,0,2013-11-08 11:25:00
5:37 AM,26.6,24.8,93,30.28,7.0,Calm,Calm,-,N/A,,Clear,0,2013-11-08 11:37:00
5:52 AM,26.1,25.0,96,30.32,7.0,SSW,3.5,-,N/A,,Clear,200,2013-11-08 11:52:00
6:52 AM,25.0,24.1,96,30.33,7.0,Calm,Calm,-,N/A,,Clear,0,2013-11-08 12:52:00
7:52 AM,30.0,28.0,92,30.35,7.0,SW,3.5,-,N/A,,Clear,220,2013-11-08 13:52:00
8:52 AM,34.0,30.0,85,30.35,8.0,Calm,Calm,-,N/A,,Clear,0,2013-11-08 14:52:00
9:52 AM,37.9,30.9,76,30.33,8.0,South,8.1,-,N/A,,Clear,180,2013-11-08 15:52:00
10:52 AM,42.1,30.9,65,30.31,10.0,Variable,5.8,-,N/A,,Clear,0,2013-11-08 16:52:00
11:52 AM,44.1,30.9,60,30.27,10.0,SSW,6.9,-,N/A,,Clear,200,2013-11-08 17:52:00
12:52 PM,46.0,30.0,54,30.24,10.0,SSW,9.2,-,N/A,,Clear,210,2013-11-08 18:52:00
1:52 PM,46.0,30.9,56,30.21,10.0,SSW,6.9,-,N/A,,Clear,200,2013-11-08 19:52:00
2:52 PM,46.9,30.9,54,30.19,10.0,South,10.4,-,N/A,,Partly Cloudy,190,2013-11-08 20:52:00
3:52 PM,46.0,30.0,54,30.16,10.0,SSE,9.2,-,N/A,,Mostly Cloudy,160,2013-11-08 21:52:00
4:52 PM,45.0,28.0,52,30.13,10.0,SSE,11.5,-,N/A,,Clear,160,2013-11-08 22:52:00
5:52 PM,43.0,30.0,60,30.11,10.0,SSE,9.2,-,N/A,,Clear,160,2013-11-08 23:52:00
6:52 PM,44.1,30.9,60,30.08,10.0,SSE,12.7,-,N/A,,Clear,160,2013-11-09 00:52:00
7:52 PM,44.1,32.0,63,30.08,10.0,South,17.3,-,N/A,,Partly Cloudy,170,2013-11-09 01:52:00
8:52 PM,45.0,30.9,58,30.06,10.0,South,13.8,21.9,N/A,,Clear,180,2013-11-09 02:52:00
9:52 PM,45.0,30.9,58,30.04,10.0,South,17.3,27.6,N/A,,Scattered Clouds,180,2013-11-09 03:52:00
10:52 PM,45.0,32.0,60,29.99,10.0,South,17.3,-,N/A,,Overcast,180,2013-11-09 04:52:00
11:52 PM,45.0,32.0,60,29.95,10.0,South,19.6,27.6,N/A,,Clear,190,2013-11-09 05:52:00